createdAt,value
2022-10-14T00:00:42.212Z,11.60
2022-10-14T00:03:09.219Z,11.75
2022-10-14T00:05:40.559Z,12.18
2022-10-14T00:08:08.845Z,11.68
2022-10-14T00:10:39.058Z,11.88
2022-10-14T00:13:06.102Z,12.05
2022-10-14T00:15:38.285Z,12.60
2022-10-14T00:18:05.218Z,12.15
2022-10-14T00:20:31.948Z,11.45
2022-10-14T00:22:58.689Z,11.00
2022-10-14T00:25:26.378Z,11.85
2022-10-14T00:27:53.192Z,11.82
2022-10-14T00:30:20.267Z,12.00
2022-10-14T00:32:47.109Z,12.73
2022-10-14T00:35:13.847Z,12.52
2022-10-14T00:37:40.553Z,12.52
2022-10-14T00:40:07.718Z,12.18
2022-10-14T00:42:34.697Z,13.05
2022-10-14T00:45:06.662Z,12.40
2022-10-14T00:47:33.746Z,13.73
2022-10-14T00:50:00.843Z,12.57
2022-10-14T00:52:28.077Z,12.30
2022-10-14T00:55:00.341Z,12.23
2022-10-14T00:57:27.704Z,12.32
2022-10-14T01:00:01.189Z,11.05
2022-10-14T01:02:27.980Z,12.30
2022-10-14T01:04:54.738Z,12.57
2022-10-14T01:07:50.760Z,12.98
2022-10-14T01:10:25.309Z,13.10
2022-10-14T01:13:10.546Z,14.32
2022-10-14T01:15:56.176Z,13.68
2022-10-14T01:18:47.850Z,15.02
2022-10-14T01:21:14.446Z,13.50
2022-10-14T01:24:13.827Z,13.55
2022-10-14T01:26:51.402Z,14.45
2022-10-14T01:29:46.858Z,15.95
2022-10-14T01:32:20.235Z,15.13
2022-10-14T01:34:58.366Z,15.00
2022-10-14T01:37:28.770Z,15.68
2022-10-14T01:42:27.653Z,16.75
2022-10-14T01:47:28.465Z,17.20
2022-10-14T01:50:03.072Z,16.65
2022-10-14T01:52:37.685Z,16.73
2022-10-14T01:55:09.585Z,17.42
2022-10-14T01:57:39.633Z,17.23
2022-10-14T02:00:07.043Z,18.40
2022-10-14T02:02:37.566Z,17.52
2022-10-14T02:05:10.645Z,18.15
2022-10-14T02:08:10.879Z,18.02
2022-10-14T02:10:40.482Z,17.30
2022-10-14T02:13:07.077Z,18.45
2022-10-14T02:15:42.459Z,17.75
2022-10-14T02:18:21.204Z,16.98
2022-10-14T02:20:47.829Z,18.17
2022-10-14T02:23:20.421Z,18.42
2022-10-14T02:25:49.965Z,17.40
2022-10-14T02:28:19.999Z,18.60
2022-10-14T02:30:52.095Z,17.33
2022-10-14T02:33:24.565Z,17.90
2022-10-14T02:35:52.021Z,17.25
2022-10-14T02:38:20.404Z,17.80
2022-10-14T02:40:49.852Z,18.20
2022-10-14T02:43:17.394Z,18.27
2022-10-14T02:45:44.312Z,17.27
2022-10-14T02:48:12.492Z,17.70
2022-10-14T02:50:40.162Z,18.48
2022-10-14T02:53:06.883Z,18.98
2022-10-14T02:55:33.545Z,20.50
2022-10-14T02:58:00.261Z,18.95
2022-10-14T03:00:27.121Z,18.63
2022-10-14T03:02:53.773Z,18.83
2022-10-14T03:05:20.499Z,19.05
2022-10-14T03:07:47.182Z,19.33
2022-10-14T03:10:14.024Z,19.85
2022-10-14T03:12:40.691Z,19.60
2022-10-14T03:15:08.175Z,19.20
2022-10-14T03:17:34.849Z,18.38
2022-10-14T03:20:01.789Z,19.77
2022-10-14T03:22:28.521Z,20.35
2022-10-14T03:24:55.213Z,20.77
2022-10-14T03:27:22.026Z,20.48
2022-10-14T03:29:48.674Z,20.70
2022-10-14T03:32:15.366Z,19.58
2022-10-14T03:34:42.062Z,20.02
2022-10-14T03:37:09.171Z,20.92
2022-10-14T03:39:35.913Z,21.70
2022-10-14T03:42:02.737Z,20.65
2022-10-14T03:44:29.407Z,21.38
2022-10-14T03:46:56.114Z,20.63
2022-10-14T03:49:23.098Z,21.60
2022-10-14T03:51:49.754Z,21.30
2022-10-14T03:54:16.531Z,22.17
2022-10-14T03:56:43.173Z,21.95
2022-10-14T03:59:10.199Z,22.10
2022-10-14T04:01:36.956Z,22.55
2022-10-14T04:04:03.750Z,22.00
2022-10-14T04:06:31.452Z,22.02
2022-10-14T04:08:58.239Z,22.65
2022-10-14T04:11:24.880Z,22.55
2022-10-14T04:13:51.563Z,22.05
2022-10-14T04:16:18.237Z,21.73
2022-10-14T04:18:44.950Z,21.65
2022-10-14T04:21:12.630Z,22.38
2022-10-14T04:23:39.371Z,22.55
2022-10-14T04:26:09.877Z,22.52
2022-10-14T04:28:37.206Z,22.05
2022-10-14T04:31:04.923Z,23.15
2022-10-14T04:33:31.696Z,23.08
2022-10-14T04:35:59.977Z,21.55
2022-10-14T04:38:27.492Z,23.25
2022-10-14T04:40:54.750Z,22.20
2022-10-14T04:43:21.646Z,23.05
2022-10-14T04:45:48.746Z,22.73
2022-10-14T04:48:16.450Z,23.13
2022-10-14T04:50:43.180Z,23.05
2022-10-14T04:53:13.418Z,22.70
2022-10-14T04:55:40.518Z,22.17
2022-10-14T04:58:07.193Z,23.08
2022-10-14T05:00:33.903Z,21.98
2022-10-14T05:03:00.650Z,21.58
2022-10-14T05:05:27.450Z,22.15
2022-10-14T05:07:54.120Z,23.30
2022-10-14T05:10:21.781Z,22.77
2022-10-14T05:12:49.024Z,23.92
2022-10-14T05:15:16.173Z,23.00
2022-10-14T05:17:44.655Z,22.70
2022-10-14T05:20:12.313Z,22.75
2022-10-14T05:22:39.187Z,24.20
2022-10-14T05:25:11.833Z,23.92
2022-10-14T05:27:38.513Z,23.10
2022-10-14T05:30:05.529Z,23.63
2022-10-14T05:32:32.178Z,21.33
2022-10-14T05:34:58.867Z,21.85
2022-10-14T05:37:25.610Z,21.60
2022-10-14T05:39:52.485Z,20.98
2022-10-14T05:42:19.427Z,20.65
2022-10-14T05:44:46.353Z,18.70
2022-10-14T05:47:18.857Z,18.70
2022-10-14T05:49:45.558Z,19.10
2022-10-14T05:52:12.365Z,18.55
2022-10-14T05:54:39.041Z,17.65
2022-10-14T05:57:05.760Z,17.55
2022-10-14T05:59:34.704Z,17.55
2022-10-14T06:02:02.442Z,16.67
2022-10-14T06:04:29.240Z,16.05
2022-10-14T06:06:56.009Z,15.40
2022-10-14T06:09:23.438Z,15.27
2022-10-14T06:11:50.164Z,14.10
2022-10-14T06:14:16.961Z,13.52
2022-10-14T06:16:43.619Z,13.60
2022-10-14T06:19:10.385Z,13.35
2022-10-14T06:21:37.832Z,13.07
2022-10-14T06:24:04.887Z,12.50
2022-10-14T06:26:31.655Z,12.30
2022-10-14T06:28:58.514Z,11.68
2022-10-14T06:31:29.834Z,11.60
2022-10-14T06:33:58.938Z,11.50
2022-10-14T06:36:25.594Z,10.73
2022-10-14T06:38:52.440Z,11.77
2022-10-14T06:41:19.193Z,10.93
2022-10-14T06:43:45.825Z,11.45
2022-10-14T06:46:12.569Z,10.15
2022-10-14T06:48:39.206Z,10.32
2022-10-14T06:51:06.101Z,10.45
2022-10-14T06:53:32.743Z,10.05
2022-10-14T06:56:02.126Z,10.18
2022-10-14T06:58:29.825Z,9.80
2022-10-14T07:01:03.198Z,9.50
2022-10-14T07:03:29.924Z,9.27
2022-10-14T07:05:56.632Z,8.95
2022-10-14T07:08:23.309Z,8.93
2022-10-14T07:10:50.051Z,9.55
2022-10-14T07:13:16.767Z,8.90
2022-10-14T07:15:43.507Z,9.43
2022-10-14T07:18:10.218Z,9.55
2022-10-14T07:20:36.916Z,10.10
2022-10-14T07:23:03.684Z,10.70
2022-10-14T07:25:32.549Z,10.48
2022-10-14T07:28:00.007Z,10.05
2022-10-14T07:30:27.208Z,10.73
2022-10-14T07:32:54.036Z,10.30
2022-10-14T07:35:20.839Z,11.00
2022-10-14T07:37:48.910Z,11.85
2022-10-14T07:40:15.742Z,10.85
2022-10-14T07:42:42.607Z,12.35
2022-10-14T07:45:10.188Z,11.38
2022-10-14T07:47:36.906Z,11.75
2022-10-14T07:50:04.035Z,11.93
2022-10-14T07:52:30.742Z,11.93
2022-10-14T07:54:57.418Z,13.75
2022-10-14T07:57:24.637Z,12.57
2022-10-14T07:59:52.620Z,12.18
2022-10-14T08:02:19.748Z,13.52
2022-10-14T08:04:47.113Z,12.85
2022-10-14T08:07:14.993Z,14.00
2022-10-14T08:09:41.748Z,13.07
2022-10-14T08:12:08.599Z,13.23
2022-10-14T08:14:35.570Z,13.80
2022-10-14T08:17:02.301Z,14.02
2022-10-14T08:19:29.032Z,14.02
2022-10-14T08:21:55.719Z,13.93
2022-10-14T08:24:22.529Z,13.80
2022-10-14T08:26:54.419Z,14.23
2022-10-14T08:29:24.296Z,14.15
2022-10-14T08:31:52.451Z,14.75
2022-10-14T08:34:24.238Z,14.07
2022-10-14T08:36:51.668Z,15.07
2022-10-14T08:39:19.663Z,13.85
2022-10-14T08:42:05.012Z,14.38
2022-10-14T08:44:57.757Z,14.95
2022-10-14T08:47:34.626Z,15.88
2022-10-14T08:50:04.381Z,14.20
2022-10-14T08:52:37.535Z,14.15
2022-10-14T08:55:30.109Z,12.70
2022-10-14T08:58:12.110Z,13.43
2022-10-14T09:00:42.181Z,13.63
2022-10-14T09:03:36.898Z,14.13
2022-10-14T09:06:13.839Z,12.55
2022-10-14T09:08:44.638Z,13.02
2022-10-14T09:11:19.542Z,12.82
2022-10-14T09:13:51.161Z,13.75
2022-10-14T09:16:20.721Z,12.32
2022-10-14T09:18:54.593Z,12.80
2022-10-14T09:21:40.377Z,12.27
2022-10-14T09:24:48.462Z,12.65
2022-10-14T09:27:22.103Z,12.50
2022-10-14T09:30:03.300Z,13.20
2022-10-14T09:32:31.795Z,12.48
2022-10-14T09:34:59.718Z,12.48
2022-10-14T09:37:28.953Z,12.23
2022-10-14T09:40:06.620Z,12.80
2022-10-14T09:43:13.006Z,12.85
2022-10-14T09:46:00.221Z,12.02
2022-10-14T09:48:46.270Z,13.40
2022-10-14T09:51:42.438Z,11.90
2022-10-14T09:54:24.580Z,12.52
2022-10-14T09:57:08.245Z,11.38
2022-10-14T09:59:50.204Z,11.98
2022-10-14T10:02:23.711Z,11.52
2022-10-14T10:04:51.014Z,11.90
2022-10-14T10:07:23.694Z,11.60
2022-10-14T10:09:58.800Z,11.63
2022-10-14T10:12:31.276Z,12.88
2022-10-14T10:15:03.545Z,11.32
2022-10-14T10:17:36.047Z,11.07
2022-10-14T10:20:31.919Z,11.60
2022-10-14T10:23:22.946Z,11.60
2022-10-14T10:25:50.043Z,11.18
2022-10-14T10:28:20.235Z,11.05
2022-10-14T10:34:07.686Z,10.30
2022-10-14T10:36:43.493Z,9.52
2022-10-14T10:39:50.004Z,9.38
2022-10-14T10:42:40.611Z,9.25
2022-10-14T10:45:37.048Z,8.60
2022-10-14T10:48:15.532Z,7.70
2022-10-14T10:50:58.445Z,7.97
2022-10-14T10:53:41.454Z,7.57
2022-10-14T10:56:39.468Z,7.68
2022-10-14T10:59:27.317Z,7.57
2022-10-14T11:02:25.101Z,7.55
2022-10-14T11:05:03.369Z,6.72
2022-10-14T11:07:57.613Z,6.40
2022-10-14T11:11:07.035Z,7.38
2022-10-14T11:13:56.668Z,6.80
2022-10-14T11:16:54.237Z,6.90
2022-10-14T11:19:52.969Z,6.70
2022-10-14T11:22:38.963Z,7.38
2022-10-14T11:25:30.237Z,6.90
2022-10-14T11:27:57.630Z,7.18
2022-10-14T11:30:29.110Z,7.25
2022-10-14T11:33:29.024Z,6.70
2022-10-14T11:36:06.973Z,6.88
2022-10-14T11:39:03.577Z,6.22
2022-10-14T11:41:57.297Z,6.70
2022-10-14T11:44:36.620Z,6.68
2022-10-14T11:47:09.972Z,6.70
2022-10-14T11:49:59.608Z,5.90
2022-10-14T11:52:31.896Z,6.00
2022-10-14T11:55:28.882Z,5.72
2022-10-14T11:58:18.625Z,5.93
2022-10-14T12:00:51.416Z,5.28
2022-10-14T12:03:27.138Z,5.38
2022-10-14T12:06:06.561Z,5.22
2022-10-14T12:08:50.874Z,5.57
2022-10-14T12:11:27.771Z,5.55
2022-10-14T12:14:11.317Z,5.25
2022-10-14T12:16:41.465Z,5.53
2022-10-14T12:19:15.156Z,6.00
2022-10-14T12:22:20.966Z,6.13
2022-10-14T12:24:54.718Z,6.22
2022-10-14T12:27:23.923Z,6.82
2022-10-14T12:29:52.360Z,6.40
2022-10-14T12:32:27.655Z,6.32
2022-10-14T12:34:56.400Z,7.10
2022-10-14T12:37:32.732Z,6.53
2022-10-14T12:40:02.772Z,6.55
2022-10-14T12:42:57.703Z,6.80
2022-10-14T12:45:27.354Z,6.78
2022-10-14T12:48:20.930Z,7.05
2022-10-14T12:50:49.880Z,7.22
2022-10-14T12:53:22.595Z,7.32
2022-10-14T12:56:00.888Z,6.72
2022-10-14T12:58:41.295Z,7.28
2022-10-14T13:03:54.697Z,7.30
2022-10-14T13:06:30.176Z,6.47
2022-10-14T13:09:12.126Z,6.40
2022-10-14T13:11:44.577Z,7.30
2022-10-14T13:14:24.006Z,7.30
2022-10-14T13:16:53.472Z,7.17
2022-10-14T13:19:36.410Z,7.53
2022-10-14T13:22:31.580Z,7.32
2022-10-14T13:25:16.324Z,7.95
2022-10-14T13:28:21.513Z,6.68
2022-10-14T13:30:57.514Z,6.82
2022-10-14T13:33:57.756Z,6.82
2022-10-14T13:37:00.417Z,7.20
2022-10-14T13:39:27.171Z,6.25
2022-10-14T13:41:53.982Z,5.95
2022-10-14T13:44:21.884Z,5.75
2022-10-14T13:46:49.961Z,5.80
2022-10-14T13:49:27.808Z,5.95
2022-10-14T13:52:01.739Z,6.30
2022-10-14T13:54:32.941Z,6.63
2022-10-14T14:02:36.111Z,7.13
2022-10-14T14:05:02.942Z,6.88
2022-10-14T14:07:59.517Z,7.30
2022-10-14T14:10:24.847Z,8.73
2022-10-14T14:12:51.685Z,6.90
2022-10-14T14:15:29.555Z,8.13
2022-10-14T14:17:56.419Z,8.38
2022-10-14T14:20:27.862Z,8.23
2022-10-14T14:22:58.041Z,8.75
2022-10-14T14:25:46.569Z,8.57
2022-10-14T14:28:17.304Z,8.90
2022-10-14T14:30:54.626Z,10.23
2022-10-14T14:33:33.776Z,9.27
2022-10-14T14:36:03.174Z,9.23
2022-10-14T14:38:38.791Z,9.33
2022-10-14T14:41:25.158Z,9.02
2022-10-14T14:44:07.618Z,9.10
2022-10-14T14:46:44.971Z,9.15
2022-10-14T14:51:43.234Z,9.07
2022-10-14T14:54:19.130Z,9.48
2022-10-14T14:56:51.784Z,9.75
2022-10-14T14:59:29.654Z,9.88
2022-10-14T15:04:33.756Z,9.68
2022-10-14T15:07:21.090Z,9.95
2022-10-14T15:09:54.328Z,9.25
2022-10-14T15:12:24.111Z,9.68
2022-10-14T15:14:58.114Z,9.02
2022-10-14T15:17:35.705Z,9.35
2022-10-14T15:20:05.622Z,9.73
2022-10-14T15:22:40.311Z,9.63
2022-10-14T15:25:11.934Z,9.68
2022-10-14T15:27:45.787Z,10.10
2022-10-14T15:30:41.022Z,9.02
2022-10-14T15:33:22.716Z,8.98
2022-10-14T15:35:58.870Z,9.95
2022-10-14T15:38:26.781Z,11.00
2022-10-14T15:40:54.082Z,11.10
2022-10-14T15:43:24.867Z,10.65
2022-10-14T15:46:12.467Z,10.68
2022-10-14T15:48:41.642Z,10.75
2022-10-14T15:51:16.118Z,11.18
2022-10-14T15:53:42.856Z,9.55
2022-10-14T15:56:12.337Z,10.02
2022-10-14T15:58:39.140Z,9.10
2022-10-14T16:01:07.051Z,9.63
2022-10-14T16:03:37.285Z,9.75
2022-10-14T16:06:07.191Z,9.07
2022-10-14T16:08:34.064Z,8.90
2022-10-14T16:11:04.250Z,9.20
2022-10-14T16:13:30.901Z,10.00
2022-10-14T16:16:02.849Z,10.93
2022-10-14T16:18:29.560Z,10.10
2022-10-14T16:20:56.236Z,9.93
2022-10-14T16:23:29.610Z,12.15
2022-10-14T16:26:00.265Z,12.20
2022-10-14T16:28:27.092Z,10.85
2022-10-14T16:30:53.897Z,10.52
2022-10-14T16:33:22.112Z,10.35
2022-10-14T16:35:54.374Z,10.95
2022-10-14T16:38:22.353Z,11.43
2022-10-14T16:41:00.074Z,11.90
2022-10-14T16:43:27.897Z,12.23
2022-10-14T16:45:59.646Z,12.85
2022-10-14T16:48:27.918Z,12.35
2022-10-14T16:50:55.247Z,10.88
2022-10-14T16:53:41.064Z,11.32
2022-10-14T16:56:36.999Z,10.82
2022-10-14T16:59:05.215Z,10.48
2022-10-14T17:01:32.181Z,10.90
2022-10-14T17:03:59.017Z,10.65
2022-10-14T17:06:26.359Z,10.77
2022-10-14T17:08:53.673Z,10.43
2022-10-14T17:11:20.718Z,9.57
2022-10-14T17:13:50.791Z,10.77
2022-10-14T17:16:17.645Z,11.32
2022-10-14T17:18:44.441Z,11.15
2022-10-14T17:21:12.200Z,11.90
2022-10-14T17:23:43.569Z,13.20
2022-10-14T17:26:13.674Z,11.95
2022-10-14T17:28:41.381Z,12.02
2022-10-14T17:31:14.146Z,12.40
2022-10-14T17:33:41.072Z,12.05
2022-10-14T17:36:11.771Z,12.15
2022-10-14T17:38:38.423Z,11.30
2022-10-14T17:41:09.963Z,13.30
2022-10-14T17:43:37.421Z,13.43
2022-10-14T17:48:34.048Z,11.90
2022-10-14T17:51:02.029Z,13.95
2022-10-14T17:53:29.360Z,13.27
2022-10-14T17:55:59.021Z,13.27
2022-10-14T17:58:25.696Z,14.25
2022-10-14T18:00:52.806Z,16.35
2022-10-14T18:03:19.603Z,15.65
2022-10-14T18:05:48.842Z,13.63
2022-10-14T18:08:15.918Z,14.52
2022-10-14T18:10:42.654Z,15.30
2022-10-14T18:13:09.386Z,14.35
2022-10-14T18:15:36.453Z,14.98
2022-10-14T18:18:03.246Z,13.32
2022-10-14T18:20:31.914Z,14.15
2022-10-14T18:23:02.809Z,13.77
2022-10-14T18:25:29.700Z,13.85
2022-10-14T18:27:56.497Z,12.65
2022-10-14T18:30:23.182Z,11.55
2022-10-14T18:32:49.875Z,12.88
2022-10-14T18:35:16.611Z,11.90
2022-10-14T18:37:43.359Z,11.48
2022-10-14T18:40:10.687Z,12.10
2022-10-14T18:42:37.373Z,11.65
2022-10-14T18:45:04.325Z,13.05
2022-10-14T18:47:31.048Z,12.05
2022-10-14T18:49:59.618Z,11.98
2022-10-14T18:52:26.501Z,13.25
2022-10-14T18:54:53.281Z,12.02
2022-10-14T18:57:20.939Z,11.90
2022-10-14T18:59:50.142Z,13.98
2022-10-14T19:02:17.826Z,13.52
2022-10-14T19:04:44.621Z,13.52
2022-10-14T19:07:11.304Z,14.02
2022-10-14T19:09:38.024Z,13.00
2022-10-14T19:12:25.204Z,12.38
2022-10-14T19:14:52.141Z,13.75
2022-10-14T19:17:18.918Z,13.43
2022-10-14T19:19:45.655Z,13.27
2022-10-14T19:22:12.357Z,12.73
2022-10-14T19:24:39.019Z,12.40
2022-10-14T19:27:05.870Z,12.82
2022-10-14T19:29:32.627Z,13.88
2022-10-14T19:31:59.421Z,12.93
2022-10-14T19:34:27.377Z,12.48
2022-10-14T19:36:54.356Z,13.48
2022-10-14T19:39:21.084Z,13.63
2022-10-14T19:41:47.855Z,15.15
2022-10-14T19:44:16.005Z,12.88
2022-10-14T19:46:43.617Z,12.10
2022-10-14T19:49:13.023Z,12.70
2022-10-14T19:51:40.321Z,13.07
2022-10-14T19:54:07.290Z,12.13
2022-10-14T19:56:33.977Z,13.45
2022-10-14T19:59:01.761Z,14.13
2022-10-14T20:01:30.195Z,15.43
2022-10-14T20:03:58.896Z,15.40
2022-10-14T20:06:27.276Z,14.20
2022-10-14T20:08:53.932Z,13.18
2022-10-14T20:11:23.320Z,15.02
2022-10-14T20:13:50.757Z,16.52
2022-10-14T20:16:17.747Z,16.00
2022-10-14T20:18:44.446Z,15.32
2022-10-14T20:21:14.559Z,14.45
2022-10-14T20:23:41.483Z,14.93
2022-10-14T20:26:17.579Z,14.50
2022-10-14T20:28:44.465Z,14.18
2022-10-14T20:31:14.890Z,16.10
2022-10-14T20:36:13.072Z,14.25
2022-10-14T20:38:40.650Z,13.98
2022-10-14T20:41:12.657Z,13.65
2022-10-14T20:43:40.860Z,15.63
2022-10-14T20:46:07.552Z,18.65
2022-10-14T20:48:34.242Z,17.73
2022-10-14T20:51:05.462Z,16.58
2022-10-14T20:53:32.677Z,16.35
2022-10-14T20:56:07.906Z,16.33
2022-10-14T20:58:35.315Z,19.10
2022-10-14T21:01:05.915Z,18.58
2022-10-14T21:03:32.804Z,14.15
2022-10-14T21:06:05.360Z,14.93
2022-10-14T21:08:32.413Z,16.00
2022-10-14T21:11:07.028Z,13.68
2022-10-14T21:13:35.969Z,13.40
2022-10-14T21:16:11.980Z,14.73
2022-10-14T21:18:38.638Z,13.75
2022-10-14T21:21:05.416Z,14.77
2022-10-14T21:23:33.637Z,15.68
2022-10-14T21:26:00.337Z,14.18
2022-10-14T21:28:27.033Z,13.85
2022-10-14T21:30:53.710Z,13.57
2022-10-14T21:33:20.412Z,13.77
2022-10-14T21:35:47.092Z,13.05
2022-10-14T21:38:13.734Z,13.18
2022-10-14T21:40:40.407Z,12.75
2022-10-14T21:43:07.123Z,12.98
2022-10-14T21:45:33.842Z,12.35
2022-10-14T21:48:01.081Z,11.85
2022-10-14T21:50:27.785Z,10.70
2022-10-14T21:52:54.422Z,11.32
2022-10-14T21:55:21.101Z,11.40
2022-10-14T21:57:47.771Z,11.63
2022-10-14T22:00:14.552Z,11.15
2022-10-14T22:02:41.226Z,11.02
2022-10-14T22:05:08.575Z,11.63
2022-10-14T22:07:35.227Z,12.05
2022-10-14T22:10:01.888Z,12.57
2022-10-14T22:12:29.874Z,11.57
2022-10-14T22:14:56.580Z,12.27
2022-10-14T22:17:23.523Z,11.90
2022-10-14T22:19:50.449Z,11.82
2022-10-14T22:22:17.109Z,12.20
2022-10-14T22:24:43.793Z,10.90
2022-10-14T22:27:10.458Z,11.73
2022-10-14T22:29:37.465Z,11.18
2022-10-14T22:32:04.308Z,10.50
2022-10-14T22:34:30.950Z,10.75
2022-10-14T22:36:57.843Z,10.73
2022-10-14T22:39:24.500Z,10.77
2022-10-14T22:41:51.187Z,11.45
2022-10-14T22:44:17.947Z,10.63
2022-10-14T22:46:44.634Z,12.32
2022-10-14T22:49:11.341Z,10.82
2022-10-14T22:51:42.493Z,11.40
2022-10-14T22:54:09.987Z,11.30
2022-10-14T22:56:37.059Z,11.30
2022-10-14T22:59:06.509Z,11.18
2022-10-14T23:01:34.040Z,11.50
2022-10-14T23:04:01.285Z,10.60
2022-10-14T23:06:28.830Z,11.02
2022-10-14T23:08:55.673Z,10.73
2022-10-14T23:11:24.356Z,11.02
2022-10-14T23:13:51.709Z,10.90
2022-10-14T23:16:20.852Z,10.63
2022-10-14T23:18:48.881Z,11.13
2022-10-14T23:21:18.639Z,10.63
2022-10-14T23:23:46.344Z,10.52
2022-10-14T23:26:15.932Z,10.82
2022-10-14T23:28:43.137Z,11.88
2022-10-14T23:31:15.181Z,12.05
2022-10-14T23:33:42.205Z,11.80
2022-10-14T23:36:11.983Z,10.68
2022-10-14T23:38:39.828Z,11.73
2022-10-14T23:41:08.144Z,11.25
2022-10-14T23:43:35.154Z,10.65
2022-10-14T23:46:02.345Z,11.80
2022-10-14T23:48:29.268Z,11.90
2022-10-14T23:50:56.271Z,12.25
2022-10-14T23:53:23.270Z,12.85
2022-10-14T23:55:49.951Z,11.80
2022-10-14T23:58:16.699Z,12.65
